sensor_id;sensor_type;location;lat;lon;timestamp;P1;durP1;ratioP1;P2;durP2;ratioP2
40252;SDS011;25972;51.854;4.534;2023-08-30T00:01:27;7.45;;;3.17;;
40252;SDS011;25972;51.854;4.534;2023-08-30T00:03:53;7.93;;;3.30;;
40252;SDS011;25972;51.854;4.534;2023-08-30T00:06:21;6.35;;;3.53;;
40252;SDS011;25972;51.854;4.534;2023-08-30T00:08:51;8.85;;;3.75;;
40252;SDS011;25972;51.854;4.534;2023-08-30T00:12:00;7.55;;;3.60;;
40252;SDS011;25972;51.854;4.534;2023-08-30T00:14:32;8.30;;;4.00;;
40252;SDS011;25972;51.854;4.534;2023-08-30T00:17:11;11.45;;;3.70;;
40252;SDS011;25972;51.854;4.534;2023-08-30T00:19:48;8.13;;;3.90;;
40252;SDS011;25972;51.854;4.534;2023-08-30T00:22:28;10.63;;;3.80;;
40252;SDS011;25972;51.854;4.534;2023-08-30T00:25:04;8.43;;;3.92;;
40252;SDS011;25972;51.854;4.534;2023-08-30T00:27:41;10.13;;;4.25;;
40252;SDS011;25972;51.854;4.534;2023-08-30T00:30:11;8.18;;;4.35;;
40252;SDS011;25972;51.854;4.534;2023-08-30T00:32:43;8.73;;;4.50;;
40252;SDS011;25972;51.854;4.534;2023-08-30T00:35:10;9.88;;;4.55;;
40252;SDS011;25972;51.854;4.534;2023-08-30T00:37:37;10.82;;;4.78;;
40252;SDS011;25972;51.854;4.534;2023-08-30T00:40:12;10.00;;;3.90;;
40252;SDS011;25972;51.854;4.534;2023-08-30T00:42:42;9.65;;;3.90;;
40252;SDS011;25972;51.854;4.534;2023-08-30T00:45:09;11.38;;;4.22;;
40252;SDS011;25972;51.854;4.534;2023-08-30T00:47:51;10.50;;;4.93;;
40252;SDS011;25972;51.854;4.534;2023-08-30T00:50:40;9.77;;;4.20;;
40252;SDS011;25972;51.854;4.534;2023-08-30T00:53:46;8.30;;;4.38;;
40252;SDS011;25972;51.854;4.534;2023-08-30T00:56:20;9.82;;;5.00;;
40252;SDS011;25972;51.854;4.534;2023-08-30T01:01:36;9.15;;;3.95;;
40252;SDS011;25972;51.854;4.534;2023-08-30T01:04:24;9.55;;;4.47;;
40252;SDS011;25972;51.854;4.534;2023-08-30T01:07:06;9.73;;;4.55;;
40252;SDS011;25972;51.854;4.534;2023-08-30T01:10:14;11.32;;;4.00;;
40252;SDS011;25972;51.854;4.534;2023-08-30T01:12:42;10.93;;;4.65;;
40252;SDS011;25972;51.854;4.534;2023-08-30T01:15:19;9.68;;;4.68;;
40252;SDS011;25972;51.854;4.534;2023-08-30T01:17:58;9.10;;;4.28;;
40252;SDS011;25972;51.854;4.534;2023-08-30T01:20:33;10.40;;;4.63;;
40252;SDS011;25972;51.854;4.534;2023-08-30T01:23:09;8.95;;;4.45;;
40252;SDS011;25972;51.854;4.534;2023-08-30T01:26:03;10.80;;;4.90;;
40252;SDS011;25972;51.854;4.534;2023-08-30T01:28:39;7.88;;;3.63;;
40252;SDS011;25972;51.854;4.534;2023-08-30T01:31:06;10.88;;;5.30;;
40252;SDS011;25972;51.854;4.534;2023-08-30T01:33:39;8.85;;;4.18;;
40252;SDS011;25972;51.854;4.534;2023-08-30T01:36:16;9.30;;;4.35;;
40252;SDS011;25972;51.854;4.534;2023-08-30T01:38:42;10.23;;;4.93;;
40252;SDS011;25972;51.854;4.534;2023-08-30T01:41:11;10.90;;;5.03;;
40252;SDS011;25972;51.854;4.534;2023-08-30T01:43:45;10.48;;;4.63;;
40252;SDS011;25972;51.854;4.534;2023-08-30T01:46:21;10.73;;;4.82;;
40252;SDS011;25972;51.854;4.534;2023-08-30T01:48:53;11.88;;;4.72;;
40252;SDS011;25972;51.854;4.534;2023-08-30T01:51:41;9.25;;;4.78;;
40252;SDS011;25972;51.854;4.534;2023-08-30T01:54:18;12.55;;;5.18;;
40252;SDS011;25972;51.854;4.534;2023-08-30T01:57:13;10.30;;;5.03;;
40252;SDS011;25972;51.854;4.534;2023-08-30T01:59:45;10.27;;;4.13;;
40252;SDS011;25972;51.854;4.534;2023-08-30T02:02:12;10.48;;;5.00;;
40252;SDS011;25972;51.854;4.534;2023-08-30T02:04:40;9.85;;;5.03;;
40252;SDS011;25972;51.854;4.534;2023-08-30T02:07:14;12.57;;;5.10;;
40252;SDS011;25972;51.854;4.534;2023-08-30T02:09:48;9.98;;;5.32;;
40252;SDS011;25972;51.854;4.534;2023-08-30T02:12:37;12.35;;;5.95;;
40252;SDS011;25972;51.854;4.534;2023-08-30T02:15:13;12.10;;;5.40;;
40252;SDS011;25972;51.854;4.534;2023-08-30T02:17:44;11.38;;;4.90;;
40252;SDS011;25972;51.854;4.534;2023-08-30T02:23:03;12.40;;;4.85;;
40252;SDS011;25972;51.854;4.534;2023-08-30T02:25:50;11.70;;;5.47;;
40252;SDS011;25972;51.854;4.534;2023-08-30T02:28:49;11.02;;;4.78;;
40252;SDS011;25972;51.854;4.534;2023-08-30T02:31:20;10.68;;;5.35;;
40252;SDS011;25972;51.854;4.534;2023-08-30T02:34:25;13.70;;;6.25;;
40252;SDS011;25972;51.854;4.534;2023-08-30T02:36:51;10.65;;;5.53;;
40252;SDS011;25972;51.854;4.534;2023-08-30T02:39:23;13.35;;;5.63;;
40252;SDS011;25972;51.854;4.534;2023-08-30T02:41:52;13.75;;;6.18;;
40252;SDS011;25972;51.854;4.534;2023-08-30T02:44:19;9.25;;;4.70;;
40252;SDS011;25972;51.854;4.534;2023-08-30T02:46:58;12.55;;;5.68;;
40252;SDS011;25972;51.854;4.534;2023-08-30T02:49:26;11.27;;;5.47;;
40252;SDS011;25972;51.854;4.534;2023-08-30T02:51:52;14.95;;;5.25;;
40252;SDS011;25972;51.854;4.534;2023-08-30T02:54:22;13.52;;;5.47;;
40252;SDS011;25972;51.854;4.534;2023-08-30T02:57:07;12.23;;;5.65;;
40252;SDS011;25972;51.854;4.534;2023-08-30T02:59:40;13.50;;;5.50;;
40252;SDS011;25972;51.854;4.534;2023-08-30T03:02:09;11.70;;;5.50;;
40252;SDS011;25972;51.854;4.534;2023-08-30T03:04:53;10.30;;;5.45;;
40252;SDS011;25972;51.854;4.534;2023-08-30T03:07:34;8.50;;;4.20;;
40252;SDS011;25972;51.854;4.534;2023-08-30T03:10:04;11.65;;;5.13;;
40252;SDS011;25972;51.854;4.534;2023-08-30T03:12:32;13.55;;;5.70;;
40252;SDS011;25972;51.854;4.534;2023-08-30T03:15:11;13.13;;;5.65;;
40252;SDS011;25972;51.854;4.534;2023-08-30T03:17:39;11.27;;;5.60;;
40252;SDS011;25972;51.854;4.534;2023-08-30T03:20:12;11.90;;;5.57;;
40252;SDS011;25972;51.854;4.534;2023-08-30T03:22:45;14.82;;;6.30;;
40252;SDS011;25972;51.854;4.534;2023-08-30T03:25:13;12.82;;;5.93;;
40252;SDS011;25972;51.854;4.534;2023-08-30T03:27:52;12.75;;;5.43;;
40252;SDS011;25972;51.854;4.534;2023-08-30T03:30:23;13.02;;;5.55;;
40252;SDS011;25972;51.854;4.534;2023-08-30T03:32:56;11.90;;;5.15;;
40252;SDS011;25972;51.854;4.534;2023-08-30T03:35:39;12.05;;;4.97;;
40252;SDS011;25972;51.854;4.534;2023-08-30T03:38:05;12.35;;;6.15;;
40252;SDS011;25972;51.854;4.534;2023-08-30T03:40:41;12.88;;;5.78;;
40252;SDS011;25972;51.854;4.534;2023-08-30T03:43:28;12.95;;;6.20;;
40252;SDS011;25972;51.854;4.534;2023-08-30T03:45:57;12.98;;;5.85;;
40252;SDS011;25972;51.854;4.534;2023-08-30T03:48:43;11.70;;;5.90;;
40252;SDS011;25972;51.854;4.534;2023-08-30T03:51:13;13.95;;;6.60;;
40252;SDS011;25972;51.854;4.534;2023-08-30T03:53:40;13.30;;;6.60;;
40252;SDS011;25972;51.854;4.534;2023-08-30T03:56:17;12.20;;;6.05;;
40252;SDS011;25972;51.854;4.534;2023-08-30T03:59:05;13.65;;;6.63;;
40252;SDS011;25972;51.854;4.534;2023-08-30T04:01:38;14.95;;;6.78;;
40252;SDS011;25972;51.854;4.534;2023-08-30T04:07:09;13.00;;;5.88;;
40252;SDS011;25972;51.854;4.534;2023-08-30T04:09:35;14.65;;;6.90;;
40252;SDS011;25972;51.854;4.534;2023-08-30T04:12:18;13.52;;;6.43;;
40252;SDS011;25972;51.854;4.534;2023-08-30T04:17:43;14.35;;;6.93;;
40252;SDS011;25972;51.854;4.534;2023-08-30T04:20:17;15.80;;;6.95;;
40252;SDS011;25972;51.854;4.534;2023-08-30T04:22:47;14.02;;;6.60;;
40252;SDS011;25972;51.854;4.534;2023-08-30T04:25:17;14.82;;;6.57;;
40252;SDS011;25972;51.854;4.534;2023-08-30T04:27:59;13.77;;;6.32;;
40252;SDS011;25972;51.854;4.534;2023-08-30T04:30:42;14.73;;;6.95;;
40252;SDS011;25972;51.854;4.534;2023-08-30T04:33:18;14.77;;;6.60;;
40252;SDS011;25972;51.854;4.534;2023-08-30T04:35:49;12.23;;;6.40;;
40252;SDS011;25972;51.854;4.534;2023-08-30T04:38:17;14.63;;;7.45;;
40252;SDS011;25972;51.854;4.534;2023-08-30T04:40:56;15.48;;;7.15;;
40252;SDS011;25972;51.854;4.534;2023-08-30T04:43:39;14.82;;;6.07;;
40252;SDS011;25972;51.854;4.534;2023-08-30T04:46:15;13.13;;;6.72;;
40252;SDS011;25972;51.854;4.534;2023-08-30T04:48:47;14.38;;;5.90;;
40252;SDS011;25972;51.854;4.534;2023-08-30T04:51:17;11.95;;;5.90;;
40252;SDS011;25972;51.854;4.534;2023-08-30T04:53:43;12.20;;;5.88;;
40252;SDS011;25972;51.854;4.534;2023-08-30T04:56:10;16.30;;;6.25;;
40252;SDS011;25972;51.854;4.534;2023-08-30T04:58:40;13.55;;;6.10;;
40252;SDS011;25972;51.854;4.534;2023-08-30T05:01:14;11.38;;;5.90;;
40252;SDS011;25972;51.854;4.534;2023-08-30T05:03:48;11.77;;;6.20;;
40252;SDS011;25972;51.854;4.534;2023-08-30T05:06:17;15.52;;;5.88;;
40252;SDS011;25972;51.854;4.534;2023-08-30T05:08:50;13.57;;;6.30;;
40252;SDS011;25972;51.854;4.534;2023-08-30T05:11:16;11.35;;;5.60;;
40252;SDS011;25972;51.854;4.534;2023-08-30T05:13:46;15.60;;;6.20;;
40252;SDS011;25972;51.854;4.534;2023-08-30T05:16:13;13.73;;;6.18;;
40252;SDS011;25972;51.854;4.534;2023-08-30T05:18:43;12.45;;;6.32;;
40252;SDS011;25972;51.854;4.534;2023-08-30T05:21:16;13.60;;;6.18;;
40252;SDS011;25972;51.854;4.534;2023-08-30T05:23:50;12.13;;;5.78;;
40252;SDS011;25972;51.854;4.534;2023-08-30T05:26:31;13.55;;;5.93;;
40252;SDS011;25972;51.854;4.534;2023-08-30T05:29:08;13.18;;;5.63;;
40252;SDS011;25972;51.854;4.534;2023-08-30T05:32:04;12.48;;;5.70;;
40252;SDS011;25972;51.854;4.534;2023-08-30T05:35:05;10.55;;;5.07;;
40252;SDS011;25972;51.854;4.534;2023-08-30T05:38:04;11.88;;;5.40;;
40252;SDS011;25972;51.854;4.534;2023-08-30T05:40:51;9.75;;;5.25;;
40252;SDS011;25972;51.854;4.534;2023-08-30T05:43:21;13.45;;;5.40;;
40252;SDS011;25972;51.854;4.534;2023-08-30T05:45:50;11.63;;;5.95;;
40252;SDS011;25972;51.854;4.534;2023-08-30T05:48:19;13.57;;;5.78;;
40252;SDS011;25972;51.854;4.534;2023-08-30T05:50:48;12.02;;;5.38;;
40252;SDS011;25972;51.854;4.534;2023-08-30T05:53:16;11.77;;;5.65;;
40252;SDS011;25972;51.854;4.534;2023-08-30T05:55:42;11.38;;;5.32;;
40252;SDS011;25972;51.854;4.534;2023-08-30T05:58:09;12.90;;;5.75;;
40252;SDS011;25972;51.854;4.534;2023-08-30T06:00:35;12.73;;;5.15;;
40252;SDS011;25972;51.854;4.534;2023-08-30T06:03:01;10.95;;;5.35;;
40252;SDS011;25972;51.854;4.534;2023-08-30T06:05:28;11.52;;;5.18;;
40252;SDS011;25972;51.854;4.534;2023-08-30T06:07:54;10.95;;;5.30;;
40252;SDS011;25972;51.854;4.534;2023-08-30T06:10:22;12.63;;;5.88;;
40252;SDS011;25972;51.854;4.534;2023-08-30T06:12:48;12.93;;;6.20;;
40252;SDS011;25972;51.854;4.534;2023-08-30T06:15:14;13.40;;;6.03;;
40252;SDS011;25972;51.854;4.534;2023-08-30T06:17:41;13.13;;;5.10;;
40252;SDS011;25972;51.854;4.534;2023-08-30T06:20:08;13.05;;;6.28;;
40252;SDS011;25972;51.854;4.534;2023-08-30T06:22:34;14.55;;;6.40;;
40252;SDS011;25972;51.854;4.534;2023-08-30T06:25:00;15.90;;;7.05;;
40252;SDS011;25972;51.854;4.534;2023-08-30T06:27:31;14.68;;;6.53;;
40252;SDS011;25972;51.854;4.534;2023-08-30T06:29:57;14.45;;;6.15;;
40252;SDS011;25972;51.854;4.534;2023-08-30T06:32:23;15.00;;;5.97;;
40252;SDS011;25972;51.854;4.534;2023-08-30T06:34:49;13.07;;;6.55;;
40252;SDS011;25972;51.854;4.534;2023-08-30T06:37:16;13.25;;;6.18;;
40252;SDS011;25972;51.854;4.534;2023-08-30T06:39:42;11.15;;;5.35;;
40252;SDS011;25972;51.854;4.534;2023-08-30T06:42:08;11.73;;;6.00;;
40252;SDS011;25972;51.854;4.534;2023-08-30T06:44:36;12.13;;;6.45;;
40252;SDS011;25972;51.854;4.534;2023-08-30T06:47:02;9.43;;;5.15;;
40252;SDS011;25972;51.854;4.534;2023-08-30T06:49:29;10.30;;;5.65;;
40252;SDS011;25972;51.854;4.534;2023-08-30T06:51:57;11.10;;;5.82;;
40252;SDS011;25972;51.854;4.534;2023-08-30T06:54:23;10.30;;;5.60;;
40252;SDS011;25972;51.854;4.534;2023-08-30T06:56:57;10.73;;;5.28;;
40252;SDS011;25972;51.854;4.534;2023-08-30T06:59:25;10.13;;;4.97;;
40252;SDS011;25972;51.854;4.534;2023-08-30T07:02:04;10.55;;;5.38;;
40252;SDS011;25972;51.854;4.534;2023-08-30T07:04:34;11.27;;;5.13;;
40252;SDS011;25972;51.854;4.534;2023-08-30T07:07:02;12.00;;;5.85;;
40252;SDS011;25972;51.854;4.534;2023-08-30T07:09:30;11.02;;;5.25;;
40252;SDS011;25972;51.854;4.534;2023-08-30T07:12:09;9.50;;;4.38;;
40252;SDS011;25972;51.854;4.534;2023-08-30T07:14:35;9.85;;;4.47;;
40252;SDS011;25972;51.854;4.534;2023-08-30T07:17:05;9.15;;;4.20;;
40252;SDS011;25972;51.854;4.534;2023-08-30T07:19:33;6.95;;;3.47;;
40252;SDS011;25972;51.854;4.534;2023-08-30T07:22:01;6.93;;;3.28;;
40252;SDS011;25972;51.854;4.534;2023-08-30T07:24:28;7.70;;;3.58;;
40252;SDS011;25972;51.854;4.534;2023-08-30T07:26:55;7.70;;;3.63;;
40252;SDS011;25972;51.854;4.534;2023-08-30T07:29:21;11.68;;;3.70;;
40252;SDS011;25972;51.854;4.534;2023-08-30T07:31:48;7.28;;;3.65;;
40252;SDS011;25972;51.854;4.534;2023-08-30T07:34:27;7.20;;;3.25;;
40252;SDS011;25972;51.854;4.534;2023-08-30T07:36:54;6.75;;;3.40;;
40252;SDS011;25972;51.854;4.534;2023-08-30T07:39:21;7.63;;;3.75;;
40252;SDS011;25972;51.854;4.534;2023-08-30T07:41:51;7.85;;;3.83;;
40252;SDS011;25972;51.854;4.534;2023-08-30T07:44:21;6.45;;;3.42;;
40252;SDS011;25972;51.854;4.534;2023-08-30T07:46:48;3.47;;;2.05;;
40252;SDS011;25972;51.854;4.534;2023-08-30T07:49:14;6.90;;;3.70;;
40252;SDS011;25972;51.854;4.534;2023-08-30T07:51:43;8.73;;;4.50;;
40252;SDS011;25972;51.854;4.534;2023-08-30T07:54:11;7.53;;;4.10;;
40252;SDS011;25972;51.854;4.534;2023-08-30T07:56:38;9.25;;;4.70;;
40252;SDS011;25972;51.854;4.534;2023-08-30T07:59:08;6.85;;;3.95;;
40252;SDS011;25972;51.854;4.534;2023-08-30T08:01:35;8.43;;;4.60;;
40252;SDS011;25972;51.854;4.534;2023-08-30T08:04:02;7.00;;;4.00;;
40252;SDS011;25972;51.854;4.534;2023-08-30T08:06:29;6.38;;;3.53;;
40252;SDS011;25972;51.854;4.534;2023-08-30T08:08:57;9.35;;;4.35;;
40252;SDS011;25972;51.854;4.534;2023-08-30T08:11:28;8.23;;;4.55;;
40252;SDS011;25972;51.854;4.534;2023-08-30T08:13:55;8.68;;;4.57;;
40252;SDS011;25972;51.854;4.534;2023-08-30T08:16:22;9.85;;;5.20;;
40252;SDS011;25972;51.854;4.534;2023-08-30T08:18:49;8.98;;;5.25;;
40252;SDS011;25972;51.854;4.534;2023-08-30T08:21:18;8.85;;;5.55;;
40252;SDS011;25972;51.854;4.534;2023-08-30T08:23:44;5.03;;;3.28;;
40252;SDS011;25972;51.854;4.534;2023-08-30T08:26:16;8.50;;;4.82;;
40252;SDS011;25972;51.854;4.534;2023-08-30T08:28:42;7.47;;;3.75;;
40252;SDS011;25972;51.854;4.534;2023-08-30T08:31:08;8.32;;;4.97;;
40252;SDS011;25972;51.854;4.534;2023-08-30T08:33:34;9.32;;;4.22;;
40252;SDS011;25972;51.854;4.534;2023-08-30T08:36:01;6.05;;;3.67;;
40252;SDS011;25972;51.854;4.534;2023-08-30T08:38:27;7.28;;;3.65;;
40252;SDS011;25972;51.854;4.534;2023-08-30T08:40:54;6.88;;;3.58;;
40252;SDS011;25972;51.854;4.534;2023-08-30T08:43:30;6.03;;;2.80;;
40252;SDS011;25972;51.854;4.534;2023-08-30T08:45:59;5.13;;;3.10;;
40252;SDS011;25972;51.854;4.534;2023-08-30T08:48:26;6.82;;;3.38;;
40252;SDS011;25972;51.854;4.534;2023-08-30T08:50:54;4.18;;;1.90;;
40252;SDS011;25972;51.854;4.534;2023-08-30T08:53:21;6.22;;;3.00;;
40252;SDS011;25972;51.854;4.534;2023-08-30T08:55:47;6.50;;;3.22;;
40252;SDS011;25972;51.854;4.534;2023-08-30T08:58:14;4.80;;;2.38;;
40252;SDS011;25972;51.854;4.534;2023-08-30T09:00:42;5.18;;;2.13;;
40252;SDS011;25972;51.854;4.534;2023-08-30T09:03:08;7.85;;;2.40;;
40252;SDS011;25972;51.854;4.534;2023-08-30T09:05:35;8.82;;;2.30;;
40252;SDS011;25972;51.854;4.534;2023-08-30T09:08:04;4.72;;;2.20;;
40252;SDS011;25972;51.854;4.534;2023-08-30T09:10:31;3.50;;;2.20;;
40252;SDS011;25972;51.854;4.534;2023-08-30T09:12:58;6.68;;;2.00;;
40252;SDS011;25972;51.854;4.534;2023-08-30T09:15:30;6.03;;;2.17;;
40252;SDS011;25972;51.854;4.534;2023-08-30T09:17:58;5.05;;;2.15;;
40252;SDS011;25972;51.854;4.534;2023-08-30T09:20:24;4.90;;;1.83;;
40252;SDS011;25972;51.854;4.534;2023-08-30T09:22:51;3.65;;;1.92;;
40252;SDS011;25972;51.854;4.534;2023-08-30T09:25:22;5.35;;;2.40;;
40252;SDS011;25972;51.854;4.534;2023-08-30T09:27:56;5.15;;;2.10;;
40252;SDS011;25972;51.854;4.534;2023-08-30T09:30:24;6.10;;;2.30;;
40252;SDS011;25972;51.854;4.534;2023-08-30T09:32:51;3.65;;;2.10;;
40252;SDS011;25972;51.854;4.534;2023-08-30T09:35:19;7.90;;;2.40;;
40252;SDS011;25972;51.854;4.534;2023-08-30T09:37:45;5.47;;;2.15;;
40252;SDS011;25972;51.854;4.534;2023-08-30T09:40:12;4.45;;;2.28;;
40252;SDS011;25972;51.854;4.534;2023-08-30T09:42:43;6.22;;;2.25;;
40252;SDS011;25972;51.854;4.534;2023-08-30T09:45:17;5.30;;;2.00;;
40252;SDS011;25972;51.854;4.534;2023-08-30T09:47:46;8.57;;;2.70;;
40252;SDS011;25972;51.854;4.534;2023-08-30T09:50:16;7.60;;;2.10;;
40252;SDS011;25972;51.854;4.534;2023-08-30T09:55:12;7.57;;;2.42;;
40252;SDS011;25972;51.854;4.534;2023-08-30T09:57:39;7.13;;;2.00;;
40252;SDS011;25972;51.854;4.534;2023-08-30T10:02:50;8.93;;;2.60;;
40252;SDS011;25972;51.854;4.534;2023-08-30T10:05:16;6.65;;;2.33;;
40252;SDS011;25972;51.854;4.534;2023-08-30T10:07:47;8.90;;;2.65;;
40252;SDS011;25972;51.854;4.534;2023-08-30T10:10:14;7.00;;;2.65;;
40252;SDS011;25972;51.854;4.534;2023-08-30T10:15:15;8.18;;;2.20;;
40252;SDS011;25972;51.854;4.534;2023-08-30T10:17:43;7.63;;;2.10;;
40252;SDS011;25972;51.854;4.534;2023-08-30T10:20:11;6.70;;;2.22;;
40252;SDS011;25972;51.854;4.534;2023-08-30T10:22:41;4.95;;;2.30;;
40252;SDS011;25972;51.854;4.534;2023-08-30T10:25:11;7.07;;;2.30;;
40252;SDS011;25972;51.854;4.534;2023-08-30T10:27:43;8.77;;;2.25;;
40252;SDS011;25972;51.854;4.534;2023-08-30T10:30:12;9.25;;;2.65;;
40252;SDS011;25972;51.854;4.534;2023-08-30T10:32:40;6.40;;;2.00;;
40252;SDS011;25972;51.854;4.534;2023-08-30T10:35:06;11.32;;;2.70;;
40252;SDS011;25972;51.854;4.534;2023-08-30T10:37:35;8.27;;;2.75;;
40252;SDS011;25972;51.854;4.534;2023-08-30T10:40:03;13.18;;;2.83;;
40252;SDS011;25972;51.854;4.534;2023-08-30T10:42:33;5.68;;;1.83;;
40252;SDS011;25972;51.854;4.534;2023-08-30T10:45:00;6.20;;;2.25;;
40252;SDS011;25972;51.854;4.534;2023-08-30T10:47:34;7.30;;;2.10;;
40252;SDS011;25972;51.854;4.534;2023-08-30T10:50:04;6.13;;;1.95;;
40252;SDS011;25972;51.854;4.534;2023-08-30T10:52:31;9.30;;;2.10;;
40252;SDS011;25972;51.854;4.534;2023-08-30T10:55:05;13.10;;;2.55;;
40252;SDS011;25972;51.854;4.534;2023-08-30T10:57:35;8.48;;;2.10;;
40252;SDS011;25972;51.854;4.534;2023-08-30T11:00:06;7.47;;;1.90;;
40252;SDS011;25972;51.854;4.534;2023-08-30T11:02:35;9.25;;;2.70;;
40252;SDS011;25972;51.854;4.534;2023-08-30T11:05:02;10.65;;;2.08;;
40252;SDS011;25972;51.854;4.534;2023-08-30T11:07:31;8.93;;;2.00;;
40252;SDS011;25972;51.854;4.534;2023-08-30T11:10:03;7.30;;;2.15;;
40252;SDS011;25972;51.854;4.534;2023-08-30T11:12:32;6.35;;;1.98;;
40252;SDS011;25972;51.854;4.534;2023-08-30T11:14:59;7.97;;;2.17;;
40252;SDS011;25972;51.854;4.534;2023-08-30T11:17:25;7.03;;;2.10;;
40252;SDS011;25972;51.854;4.534;2023-08-30T11:19:56;6.43;;;1.88;;
40252;SDS011;25972;51.854;4.534;2023-08-30T11:22:30;8.93;;;1.70;;
40252;SDS011;25972;51.854;4.534;2023-08-30T11:24:59;8.07;;;1.75;;
40252;SDS011;25972;51.854;4.534;2023-08-30T11:27:36;7.75;;;1.80;;
40252;SDS011;25972;51.854;4.534;2023-08-30T11:30:04;7.80;;;1.85;;
40252;SDS011;25972;51.854;4.534;2023-08-30T11:32:34;8.57;;;2.22;;
40252;SDS011;25972;51.854;4.534;2023-08-30T11:35:01;8.10;;;1.80;;
40252;SDS011;25972;51.854;4.534;2023-08-30T11:37:29;7.22;;;2.35;;
40252;SDS011;25972;51.854;4.534;2023-08-30T11:40:00;10.55;;;1.98;;
40252;SDS011;25972;51.854;4.534;2023-08-30T11:42:36;7.38;;;1.55;;
40252;SDS011;25972;51.854;4.534;2023-08-30T11:45:02;7.38;;;1.95;;
40252;SDS011;25972;51.854;4.534;2023-08-30T11:47:43;8.40;;;1.80;;
40252;SDS011;25972;51.854;4.534;2023-08-30T11:50:12;5.72;;;1.70;;
40252;SDS011;25972;51.854;4.534;2023-08-30T11:52:39;7.60;;;1.60;;
40252;SDS011;25972;51.854;4.534;2023-08-30T11:55:06;6.88;;;1.48;;
40252;SDS011;25972;51.854;4.534;2023-08-30T11:57:33;6.88;;;1.92;;
40252;SDS011;25972;51.854;4.534;2023-08-30T12:00:17;7.45;;;1.70;;
40252;SDS011;25972;51.854;4.534;2023-08-30T12:02:47;10.73;;;2.05;;
40252;SDS011;25972;51.854;4.534;2023-08-30T12:05:14;4.10;;;1.35;;
40252;SDS011;25972;51.854;4.534;2023-08-30T12:07:41;7.93;;;2.15;;
40252;SDS011;25972;51.854;4.534;2023-08-30T12:10:08;7.57;;;1.75;;
40252;SDS011;25972;51.854;4.534;2023-08-30T12:12:44;6.18;;;1.63;;
40252;SDS011;25972;51.854;4.534;2023-08-30T12:15:27;5.85;;;1.60;;
40252;SDS011;25972;51.854;4.534;2023-08-30T12:18:05;8.48;;;1.75;;
40252;SDS011;25972;51.854;4.534;2023-08-30T12:20:32;6.47;;;1.13;;
40252;SDS011;25972;51.854;4.534;2023-08-30T12:22:58;3.15;;;1.27;;
40252;SDS011;25972;51.854;4.534;2023-08-30T12:25:25;4.95;;;1.45;;
40252;SDS011;25972;51.854;4.534;2023-08-30T12:27:53;5.38;;;1.58;;
40252;SDS011;25972;51.854;4.534;2023-08-30T12:30:19;4.93;;;1.50;;
40252;SDS011;25972;51.854;4.534;2023-08-30T12:32:46;6.55;;;1.73;;
40252;SDS011;25972;51.854;4.534;2023-08-30T12:35:12;3.90;;;1.35;;
40252;SDS011;25972;51.854;4.534;2023-08-30T12:37:39;7.47;;;1.48;;
40252;SDS011;25972;51.854;4.534;2023-08-30T12:40:05;8.82;;;1.60;;
40252;SDS011;25972;51.854;4.534;2023-08-30T12:42:32;5.15;;;1.40;;
40252;SDS011;25972;51.854;4.534;2023-08-30T12:45:00;3.25;;;1.50;;
40252;SDS011;25972;51.854;4.534;2023-08-30T12:47:29;3.90;;;1.23;;
40252;SDS011;25972;51.854;4.534;2023-08-30T12:49:55;2.50;;;1.17;;
40252;SDS011;25972;51.854;4.534;2023-08-30T12:52:21;6.68;;;1.50;;
40252;SDS011;25972;51.854;4.534;2023-08-30T12:54:48;6.15;;;1.45;;
40252;SDS011;25972;51.854;4.534;2023-08-30T12:57:14;6.97;;;1.48;;
40252;SDS011;25972;51.854;4.534;2023-08-30T12:59:40;5.88;;;1.27;;
40252;SDS011;25972;51.854;4.534;2023-08-30T13:02:07;4.63;;;1.42;;
40252;SDS011;25972;51.854;4.534;2023-08-30T13:04:34;5.32;;;1.80;;
40252;SDS011;25972;51.854;4.534;2023-08-30T13:07:03;6.90;;;1.40;;
40252;SDS011;25972;51.854;4.534;2023-08-30T13:09:30;7.78;;;1.70;;
40252;SDS011;25972;51.854;4.534;2023-08-30T13:11:56;7.00;;;1.95;;
40252;SDS011;25972;51.854;4.534;2023-08-30T13:14:22;2.95;;;1.13;;
40252;SDS011;25972;51.854;4.534;2023-08-30T13:16:48;6.10;;;1.63;;
40252;SDS011;25972;51.854;4.534;2023-08-30T13:19:16;2.35;;;1.20;;
40252;SDS011;25972;51.854;4.534;2023-08-30T13:21:43;3.63;;;1.08;;
40252;SDS011;25972;51.854;4.534;2023-08-30T13:24:09;4.75;;;1.52;;
40252;SDS011;25972;51.854;4.534;2023-08-30T13:26:46;5.50;;;1.60;;
40252;SDS011;25972;51.854;4.534;2023-08-30T13:29:12;5.78;;;1.90;;
40252;SDS011;25972;51.854;4.534;2023-08-30T13:31:38;4.70;;;1.50;;
40252;SDS011;25972;51.854;4.534;2023-08-30T13:34:04;5.15;;;1.25;;
40252;SDS011;25972;51.854;4.534;2023-08-30T13:36:33;4.75;;;1.40;;
40252;SDS011;25972;51.854;4.534;2023-08-30T13:39:07;5.32;;;1.33;;
40252;SDS011;25972;51.854;4.534;2023-08-30T13:41:34;6.25;;;1.58;;
40252;SDS011;25972;51.854;4.534;2023-08-30T13:44:01;5.90;;;1.58;;
40252;SDS011;25972;51.854;4.534;2023-08-30T13:46:29;4.80;;;1.58;;
40252;SDS011;25972;51.854;4.534;2023-08-30T13:48:57;5.82;;;1.58;;
40252;SDS011;25972;51.854;4.534;2023-08-30T13:51:24;4.80;;;1.52;;
40252;SDS011;25972;51.854;4.534;2023-08-30T13:53:57;5.35;;;1.42;;
40252;SDS011;25972;51.854;4.534;2023-08-30T13:56:24;5.00;;;1.40;;
40252;SDS011;25972;51.854;4.534;2023-08-30T13:58:51;5.88;;;1.52;;
40252;SDS011;25972;51.854;4.534;2023-08-30T14:01:18;2.47;;;1.10;;
40252;SDS011;25972;51.854;4.534;2023-08-30T14:03:46;5.30;;;1.60;;
40252;SDS011;25972;51.854;4.534;2023-08-30T14:06:19;4.70;;;1.40;;
40252;SDS011;25972;51.854;4.534;2023-08-30T14:08:46;3.75;;;1.77;;
40252;SDS011;25972;51.854;4.534;2023-08-30T14:11:14;6.88;;;1.60;;
40252;SDS011;25972;51.854;4.534;2023-08-30T14:13:40;3.70;;;1.42;;
40252;SDS011;25972;51.854;4.534;2023-08-30T14:16:07;5.43;;;1.73;;
40252;SDS011;25972;51.854;4.534;2023-08-30T14:18:35;4.55;;;1.30;;
40252;SDS011;25972;51.854;4.534;2023-08-30T14:21:05;1.45;;;1.10;;
40252;SDS011;25972;51.854;4.534;2023-08-30T14:23:34;3.55;;;1.35;;
40252;SDS011;25972;51.854;4.534;2023-08-30T14:26:01;2.50;;;1.02;;
40252;SDS011;25972;51.854;4.534;2023-08-30T14:28:39;3.65;;;0.95;;
40252;SDS011;25972;51.854;4.534;2023-08-30T14:31:06;5.13;;;1.10;;
40252;SDS011;25972;51.854;4.534;2023-08-30T14:33:33;3.97;;;1.13;;
40252;SDS011;25972;51.854;4.534;2023-08-30T14:35:59;3.33;;;1.20;;
40252;SDS011;25972;51.854;4.534;2023-08-30T14:38:28;2.63;;;0.95;;
40252;SDS011;25972;51.854;4.534;2023-08-30T14:40:56;1.33;;;0.88;;
40252;SDS011;25972;51.854;4.534;2023-08-30T14:43:25;6.00;;;1.27;;
40252;SDS011;25972;51.854;4.534;2023-08-30T14:45:58;5.88;;;1.50;;
40252;SDS011;25972;51.854;4.534;2023-08-30T14:48:24;4.70;;;1.17;;
40252;SDS011;25972;51.854;4.534;2023-08-30T14:50:50;4.25;;;1.30;;
40252;SDS011;25972;51.854;4.534;2023-08-30T14:53:16;2.97;;;1.10;;
40252;SDS011;25972;51.854;4.534;2023-08-30T14:55:52;3.25;;;1.08;;
40252;SDS011;25972;51.854;4.534;2023-08-30T14:58:19;7.30;;;1.52;;
40252;SDS011;25972;51.854;4.534;2023-08-30T15:00:47;2.42;;;0.65;;
40252;SDS011;25972;51.854;4.534;2023-08-30T15:03:14;5.80;;;1.45;;
40252;SDS011;25972;51.854;4.534;2023-08-30T15:05:41;4.15;;;1.10;;
40252;SDS011;25972;51.854;4.534;2023-08-30T15:08:25;4.90;;;1.10;;
40252;SDS011;25972;51.854;4.534;2023-08-30T15:10:52;6.47;;;1.30;;
40252;SDS011;25972;51.854;4.534;2023-08-30T15:13:18;3.30;;;1.15;;
40252;SDS011;25972;51.854;4.534;2023-08-30T15:15:44;6.38;;;1.30;;
40252;SDS011;25972;51.854;4.534;2023-08-30T15:18:15;5.43;;;1.40;;
40252;SDS011;25972;51.854;4.534;2023-08-30T15:20:41;5.78;;;1.48;;
40252;SDS011;25972;51.854;4.534;2023-08-30T15:23:09;5.50;;;1.33;;
40252;SDS011;25972;51.854;4.534;2023-08-30T15:25:43;5.13;;;1.45;;